Time;durP1;ratioP1;P1;durP2;ratioP2;P2;SDS_P1;SDS_P2;PMS_P1;PMS_P2;Temp;Humidity;BMP_temperature;BMP_pressure;BME280_temperature;BME280_humidity;BME280_pressure;Samples;Min_cycle;Max_cycle;Signal;HPM_P1;HPM_P2
2024/01/19 00:02:12;;;;;;;2.92;2.33;;;1.10;94.90;;;;;;5093939;28;20170;-63
2024/01/19 00:04:37;;;;;;;2.28;2.15;;;1.10;95.00;;;;;;5093749;28;20194;-63
2024/01/19 00:07:03;;;;;;;2.30;2.10;;;1.00;94.90;;;;;;5093725;28;20256;-63
2024/01/19 00:09:29;;;;;;;2.60;2.40;;;1.00;95.10;;;;;;5075271;28;20683;-63
2024/01/19 00:11:55;;;;;;;2.57;2.00;;;1.00;94.90;;;;;;5093585;28;20268;-64
2024/01/19 00:14:20;;;;;;;1.53;1.43;;;1.00;95.10;;;;;;5093653;28;20221;-63
2024/01/19 00:16:46;;;;;;;4.87;3.03;;;1.00;95.40;;;;;;5093623;28;20185;-63
2024/01/19 00:19:12;;;;;;;3.70;2.47;;;1.10;95.30;;;;;;5093440;28;20169;-63
2024/01/19 00:21:44;;;;;;;2.30;2.00;;;1.10;95.10;;;;;;5093031;28;20409;-63
2024/01/19 00:24:10;;;;;;;3.10;2.63;;;1.10;95.10;;;;;;5093212;28;20205;-63
2024/01/19 00:26:36;;;;;;;2.53;2.33;;;1.10;95.00;;;;;;5093413;28;20169;-64
2024/01/19 00:29:01;;;;;;;3.40;2.33;;;1.00;94.50;;;;;;5093300;28;20168;-64
2024/01/19 00:31:27;;;;;;;3.33;2.73;;;0.90;94.60;;;;;;5093180;28;20166;-63
2024/01/19 00:33:53;;;;;;;3.97;2.60;;;0.90;94.60;;;;;;5094396;28;20188;-63
2024/01/19 00:36:18;;;;;;;2.80;2.40;;;0.80;94.90;;;;;;5093149;28;20191;-63
2024/01/19 00:38:44;;;;;;;6.80;2.67;;;0.90;94.60;;;;;;5092898;28;20233;-63
2024/01/19 00:41:09;;;;;;;6.20;2.00;;;0.80;94.30;;;;;;5092843;28;20163;-63
2024/01/19 00:43:35;;;;;;;3.83;3.03;;;0.80;94.40;;;;;;5092665;28;20267;-63
2024/01/19 00:46:03;;;;;;;1.90;1.40;;;0.70;94.60;;;;;;5092937;28;20541;-63
2024/01/19 00:48:29;;;;;;;2.35;1.90;;;0.70;95.00;;;;;;5074792;28;20177;-64
2024/01/19 00:50:54;;;;;;;2.60;2.10;;;0.70;94.60;;;;;;5092523;28;20709;-64
2024/01/19 00:53:20;;;;;;;3.40;1.93;;;0.70;93.90;;;;;;5092548;28;20189;-64
2024/01/19 00:55:46;;;;;;;2.40;1.83;;;0.60;93.90;;;;;;5092949;28;20227;-64
2024/01/19 00:58:11;;;;;;;2.70;2.50;;;0.60;94.30;;;;;;5093406;28;20228;-64
2024/01/19 01:00:37;;;;;;;4.33;1.63;;;0.50;93.90;;;;;;5092889;28;20192;-63
2024/01/19 01:03:03;;;;;;;7.53;2.30;;;0.50;94.00;;;;;;5092445;28;20191;-64
2024/01/19 01:05:28;;;;;;;3.20;2.30;;;0.40;94.30;;;;;;5092387;28;20161;-64
2024/01/19 01:07:54;;;;;;;3.00;1.97;;;0.40;94.70;;;;;;5092446;28;20453;-64
2024/01/19 01:10:20;;;;;;;2.17;2.07;;;0.20;94.80;;;;;;5092302;28;20169;-63
2024/01/19 01:12:46;;;;;;;4.32;2.25;;;0.20;94.60;;;;;;5092276;28;20643;-64
2024/01/19 01:15:12;;;;;;;3.23;1.93;;;0.20;94.60;;;;;;5092388;28;20199;-64
2024/01/19 01:17:37;;;;;;;1.37;1.20;;;0.10;95.10;;;;;;5092304;28;20951;-64
2024/01/19 01:20:04;;;;;;;2.33;1.73;;;0.10;95.40;;;;;;5092240;28;20295;-64
2024/01/19 01:22:31;;;;;;;2.33;1.67;;;0.00;95.40;;;;;;5091886;28;20173;-64
2024/01/19 01:24:56;;;;;;;2.20;1.50;;;-0.10;95.40;;;;;;5092090;28;20678;-64
2024/01/19 01:27:22;;;;;;;2.30;2.10;;;-0.10;95.40;;;;;;5092185;28;20249;-64
2024/01/19 01:29:47;;;;;;;3.83;1.60;;;0.00;95.20;;;;;;5092111;28;20288;-64
2024/01/19 01:32:13;;;;;;;3.00;2.03;;;0.00;95.40;;;;;;5091821;28;20177;-64
2024/01/19 01:34:39;;;;;;;2.30;1.80;;;0.00;95.60;;;;;;5091942;28;20281;-64
2024/01/19 01:37:04;;;;;;;2.03;1.47;;;-0.10;96.20;;;;;;5092006;28;20205;-64
2024/01/19 01:39:30;;;;;;;3.03;2.60;;;-0.10;96.00;;;;;;5091930;28;20171;-64
2024/01/19 01:41:56;;;;;;;2.63;1.43;;;-0.20;96.00;;;;;;5091662;28;20196;-64
2024/01/19 01:44:21;;;;;;;2.53;1.73;;;-0.20;96.30;;;;;;5089374;28;20208;-63
2024/01/19 01:46:47;;;;;;;2.23;2.03;;;-0.20;96.00;;;;;;5071753;28;20227;-64
2024/01/19 01:49:13;;;;;;;1.87;1.47;;;-0.30;96.20;;;;;;5071850;28;20920;-64
2024/01/19 01:51:39;;;;;;;2.15;1.00;;;-0.40;96.20;;;;;;5071227;28;20301;-64
2024/01/19 01:54:07;;;;;;;2.07;1.83;;;-0.50;96.30;;;;;;5072814;28;20266;-64
2024/01/19 01:56:32;;;;;;;3.13;2.80;;;-0.60;96.50;;;;;;5054308;28;20654;-64
2024/01/19 01:58:58;;;;;;;2.10;1.67;;;-0.70;96.50;;;;;;5071489;28;20217;-64
2024/01/19 02:01:24;;;;;;;2.43;2.07;;;-0.80;96.60;;;;;;5071243;28;20403;-64
2024/01/19 02:03:53;;;;;;;3.17;1.80;;;-0.90;96.90;;;;;;5071373;28;20209;-64
2024/01/19 02:06:19;;;;;;;6.80;1.90;;;-0.80;96.90;;;;;;5071387;28;20412;-63
2024/01/19 02:08:45;;;;;;;3.33;2.10;;;-0.80;96.90;;;;;;5071375;28;20564;-64
2024/01/19 02:11:11;;;;;;;3.33;1.63;;;-0.90;96.80;;;;;;5071292;28;20548;-64
2024/01/19 02:13:36;;;;;;;2.00;1.33;;;-0.90;96.80;;;;;;5071333;28;20197;-64
2024/01/19 02:16:03;;;;;;;1.97;1.87;;;-0.90;96.80;;;;;;5071440;28;20252;-64
2024/01/19 02:18:29;;;;;;;1.42;1.08;;;-1.00;96.80;;;;;;5075003;28;20458;-64
2024/01/19 02:20:55;;;;;;;2.38;1.65;;;-1.00;96.90;;;;;;5075271;28;20664;-64
2024/01/19 02:23:25;;;;;;;4.40;2.90;;;-1.00;97.00;;;;;;5075226;28;20193;-64
2024/01/19 02:25:51;;;;;;;3.60;1.95;;;-1.00;97.00;;;;;;5075429;28;20403;-63
2024/01/19 02:28:17;;;;;;;1.87;1.73;;;-1.10;96.90;;;;;;5075288;28;20173;-64
2024/01/19 02:30:44;;;;;;;2.35;2.15;;;-1.20;97.00;;;;;;5074861;28;20636;-64
2024/01/19 02:33:10;;;;;;;2.65;1.40;;;-1.20;97.20;;;;;;5074964;28;20204;-64
2024/01/19 02:35:36;;;;;;;2.15;1.58;;;-1.30;97.40;;;;;;5074783;28;20643;-65
2024/01/19 02:38:01;;;;;;;2.40;2.20;;;-1.30;97.40;;;;;;5074307;28;20209;-64
2024/01/19 02:40:27;;;;;;;2.13;1.33;;;-1.20;97.50;;;;;;5074633;28;20180;-64
2024/01/19 02:42:53;;;;;;;1.27;1.17;;;-1.30;97.50;;;;;;5074709;28;20673;-64
2024/01/19 02:45:18;;;;;;;1.73;1.17;;;-1.30;97.60;;;;;;5075030;28;20718;-63
2024/01/19 02:47:44;;;;;;;2.53;2.33;;;-1.30;97.50;;;;;;5074913;28;20553;-64
2024/01/19 02:50:10;;;;;;;1.47;1.20;;;-1.30;97.30;;;;;;5078532;28;20585;-63
2024/01/19 02:52:35;;;;;;;3.63;1.50;;;-1.40;97.10;;;;;;5094821;28;20177;-64
2024/01/19 02:55:04;;;;;;;3.27;2.10;;;-1.50;97.10;;;;;;5095082;28;20478;-64
2024/01/19 02:57:29;;;;;;;7.18;2.13;;;-1.60;97.70;;;;;;5076746;28;20207;-64
2024/01/19 02:59:55;;;;;;;4.37;1.60;;;-1.60;97.50;;;;;;5094969;28;20173;-64
2024/01/19 03:02:20;;;;;;;2.83;1.63;;;-1.60;97.40;;;;;;5094670;28;20169;-64
2024/01/19 03:04:46;;;;;;;1.50;1.40;;;-1.60;97.40;;;;;;5094854;28;20189;-64
2024/01/19 03:07:12;;;;;;;1.03;1.03;;;-1.70;97.50;;;;;;5094813;28;20165;-64
2024/01/19 03:09:38;;;;;;;2.03;1.60;;;-1.80;97.60;;;;;;5095176;28;20177;-64
2024/01/19 03:12:04;;;;;;;1.47;1.30;;;-1.80;97.70;;;;;;5094465;28;20539;-64
2024/01/19 03:14:33;;;;;;;3.90;1.30;;;-1.80;98.00;;;;;;5094712;28;20195;-64
2024/01/19 03:16:58;;;;;;;1.63;1.52;;;-1.70;98.00;;;;;;5095876;28;20176;-64
2024/01/19 03:19:24;;;;;;;2.10;1.60;;;-1.70;97.60;;;;;;5094234;28;20188;-64
2024/01/19 03:21:50;;;;;;;1.77;1.63;;;-1.60;97.50;;;;;;5094202;28;20168;-63
2024/01/19 03:24:16;;;;;;;4.13;1.52;;;-1.70;97.40;;;;;;5064899;28;20193;-64
2024/01/19 03:26:42;;;;;;;1.70;1.60;;;-1.70;97.30;;;;;;5063355;28;20170;-64
2024/01/19 03:29:09;;;;;;;2.00;1.90;;;-1.80;97.30;;;;;;5063096;28;20174;-63
2024/01/19 03:31:35;;;;;;;4.38;2.20;;;-1.80;97.40;;;;;;5064267;28;20256;-63
2024/01/19 03:34:00;;;;;;;1.40;1.30;;;-1.90;97.30;;;;;;5063100;28;20281;-64
2024/01/19 03:36:26;;;;;;;4.00;1.67;;;-2.00;97.40;;;;;;5074126;28;20220;-63
2024/01/19 03:38:52;;;;;;;1.33;1.33;;;-2.00;97.40;;;;;;5070100;28;20641;-63
2024/01/19 03:41:18;;;;;;;3.80;2.47;;;-2.10;97.50;;;;;;5045158;28;20417;-63
2024/01/19 03:43:44;;;;;;;2.30;1.33;;;-2.10;97.70;;;;;;5067806;28;20296;-62
2024/01/19 03:46:10;;;;;;;3.03;1.77;;;-2.00;97.70;;;;;;5069202;28;20185;-65
2024/01/19 03:48:36;;;;;;;3.50;2.10;;;-2.10;97.70;;;;;;5063522;28;20178;-63
2024/01/19 03:51:02;;;;;;;2.03;1.93;;;-2.00;97.80;;;;;;5064744;28;20181;-64
2024/01/19 03:53:28;;;;;;;6.83;1.70;;;-2.00;97.60;;;;;;5060419;28;20200;-64
2024/01/19 03:55:54;;;;;;;2.45;2.25;;;-1.90;97.70;;;;;;5042139;28;20499;-64
2024/01/19 03:58:19;;;;;;;1.37;1.23;;;-1.90;97.60;;;;;;5057088;28;20289;-63
2024/01/19 04:00:45;;;;;;;1.53;1.40;;;-2.00;97.60;;;;;;5053682;28;20592;-63
2024/01/19 04:03:11;;;;;;;4.60;1.90;;;-2.00;97.50;;;;;;5035729;28;20190;-63
2024/01/19 04:05:37;;;;;;;3.87;1.77;;;-2.00;97.30;;;;;;5067522;28;20442;-63
2024/01/19 04:08:02;;;;;;;1.53;1.40;;;-2.10;97.20;;;;;;5073604;28;20219;-64
2024/01/19 04:10:28;;;;;;;1.30;1.20;;;-2.10;97.30;;;;;;5073850;28;20169;-63
2024/01/19 04:12:54;;;;;;;2.63;1.43;;;-2.20;97.20;;;;;;5073209;28;20930;-64
2024/01/19 04:15:20;;;;;;;1.77;1.63;;;-2.20;97.20;;;;;;5073551;28;20494;-64
2024/01/19 04:17:45;;;;;;;1.47;1.37;;;-2.30;97.30;;;;;;5072978;28;20201;-64
2024/01/19 04:20:11;;;;;;;4.80;2.27;;;-2.40;97.30;;;;;;5073041;28;20166;-63
2024/01/19 04:22:37;;;;;;;1.40;1.17;;;-2.50;97.40;;;;;;5073072;28;20166;-64
2024/01/19 04:25:02;;;;;;;1.30;1.20;;;-2.50;97.70;;;;;;5066943;28;20220;-63
2024/01/19 04:27:28;;;;;;;1.63;1.53;;;-2.40;97.90;;;;;;5073196;28;20654;-63
2024/01/19 04:29:53;;;;;;;2.97;1.00;;;-2.30;97.90;;;;;;5071167;28;20170;-63
2024/01/19 04:32:20;;;;;;;1.97;1.67;;;-2.30;98.00;;;;;;5062540;28;20185;-63
2024/01/19 04:34:47;;;;;;;7.68;2.28;;;-2.30;98.00;;;;;;5061566;28;20218;-63
2024/01/19 04:37:14;;;;;;;5.32;1.85;;;-2.20;97.80;;;;;;5062294;28;20205;-63
2024/01/19 04:39:40;;;;;;;1.60;1.50;;;-2.10;97.30;;;;;;5059558;28;20495;-63
2024/01/19 04:42:09;;;;;;;2.17;1.40;;;-2.10;97.10;;;;;;5061572;28;20186;-63
2024/01/19 04:44:36;;;;;;;3.70;1.92;;;-2.10;97.10;;;;;;5052368;28;20815;-63
2024/01/19 04:47:02;;;;;;;2.83;2.25;;;-2.00;97.30;;;;;;5062369;28;20686;-62
2024/01/19 04:49:28;;;;;;;3.27;1.77;;;-2.00;97.50;;;;;;5063754;28;20171;-64
2024/01/19 04:51:53;;;;;;;1.73;1.63;;;-2.00;97.70;;;;;;5061512;28;20166;-64
2024/01/19 04:54:19;;;;;;;7.30;1.37;;;-2.10;97.70;;;;;;5055571;28;20606;-63
2024/01/19 04:56:45;;;;;;;2.37;2.20;;;-2.10;97.70;;;;;;5062099;28;20177;-64
2024/01/19 04:59:10;;;;;;;4.47;1.83;;;-2.10;97.50;;;;;;5072500;28;20786;-63
2024/01/19 05:01:36;;;;;;;6.30;2.13;;;-1.90;97.50;;;;;;5066052;28;20239;-63
2024/01/19 05:04:02;;;;;;;2.00;1.17;;;-1.80;97.40;;;;;;5072583;28;20238;-64
2024/01/19 05:06:28;;;;;;;1.80;1.70;;;-1.70;97.40;;;;;;5063258;28;20256;-64
2024/01/19 05:08:54;;;;;;;2.65;1.45;;;-1.70;97.40;;;;;;5061235;28;20202;-64
2024/01/19 05:11:20;;;;;;;2.50;1.97;;;-1.70;97.50;;;;;;5061710;28;20205;-64
2024/01/19 05:13:47;;;;;;;1.65;1.55;;;-1.60;97.60;;;;;;5062569;28;20427;-64
2024/01/19 05:16:13;;;;;;;3.22;1.40;;;-1.50;97.80;;;;;;5060343;28;20205;-64
2024/01/19 05:18:40;;;;;;;3.40;1.50;;;-1.40;97.50;;;;;;5062305;28;20202;-64
2024/01/19 05:21:06;;;;;;;1.45;1.45;;;-1.30;97.40;;;;;;5061799;28;20170;-63
2024/01/19 05:23:37;;;;;;;2.28;1.50;;;-1.20;97.40;;;;;;5026857;28;20641;-63
2024/01/19 05:26:08;;;;;;;3.20;1.52;;;-1.10;97.40;;;;;;5060820;28;20489;-64
2024/01/19 05:28:36;;;;;;;2.38;1.83;;;-1.00;97.00;;;;;;5063269;28;20214;-64
2024/01/19 05:31:02;;;;;;;0.90;0.90;;;-1.00;96.70;;;;;;5060529;28;20175;-64
2024/01/19 05:33:29;;;;;;;2.15;1.63;;;-0.90;96.80;;;;;;5061421;28;20216;-64
2024/01/19 05:35:55;;;;;;;1.30;1.30;;;-0.80;96.70;;;;;;5062378;28;20651;-63
2024/01/19 05:38:22;;;;;;;1.93;1.83;;;-0.80;96.60;;;;;;5060524;28;20202;-64
2024/01/19 05:40:48;;;;;;;2.33;1.42;;;-0.80;96.60;;;;;;5061228;28;20235;-63
2024/01/19 05:43:13;;;;;;;1.90;1.70;;;-0.70;96.50;;;;;;5061829;28;20203;-63
2024/01/19 05:45:39;;;;;;;2.73;1.40;;;-0.70;96.50;;;;;;5060522;28;20171;-64
2024/01/19 05:48:05;;;;;;;2.03;1.57;;;-0.70;96.40;;;;;;5063246;28;20550;-64
2024/01/19 05:50:31;;;;;;;1.63;1.52;;;-0.70;96.40;;;;;;5060766;28;20419;-63
2024/01/19 05:52:57;;;;;;;1.98;1.88;;;-0.70;96.30;;;;;;5061364;28;20245;-63
2024/01/19 05:55:23;;;;;;;2.00;1.83;;;-0.70;96.40;;;;;;5060868;28;20179;-64
2024/01/19 05:57:49;;;;;;;2.10;1.95;;;-0.70;96.40;;;;;;5060798;28;20185;-64
2024/01/19 06:00:15;;;;;;;3.90;1.57;;;-0.70;96.50;;;;;;5062939;28;20192;-63
2024/01/19 06:02:40;;;;;;;3.40;2.30;;;-0.80;96.50;;;;;;5062661;28;20170;-64
2024/01/19 06:05:07;;;;;;;1.70;1.60;;;-0.80;96.40;;;;;;5060516;28;20317;-63
2024/01/19 06:07:34;;;;;;;4.65;1.95;;;-0.90;96.10;;;;;;5060576;28;20171;-63
2024/01/19 06:09:59;;;;;;;4.75;2.13;;;-1.00;96.40;;;;;;5059427;28;20557;-64
2024/01/19 06:12:26;;;;;;;1.27;1.00;;;-1.10;96.70;;;;;;5122156;22;20228;-57
2024/01/19 06:14:52;;;;;;;1.70;1.60;;;-1.00;96.60;;;;;;5092617;28;20168;-57
2024/01/19 06:17:17;;;;;;;1.30;1.20;;;-0.90;96.60;;;;;;5111718;28;20580;-56
2024/01/19 06:19:43;;;;;;;5.33;1.80;;;-0.90;96.80;;;;;;5111818;28;20171;-57
2024/01/19 06:22:09;;;;;;;1.20;1.20;;;-1.00;97.00;;;;;;5111495;28;20230;-57
2024/01/19 06:24:36;;;;;;;2.38;2.00;;;-0.80;97.10;;;;;;5111855;28;20190;-57
2024/01/19 06:27:03;;;;;;;4.00;2.03;;;-0.70;96.80;;;;;;5111727;28;20184;-57
2024/01/19 06:29:28;;;;;;;4.95;2.70;;;-0.70;96.60;;;;;;5111575;28;20265;-57
2024/01/19 06:31:54;;;;;;;1.20;1.10;;;-0.80;96.60;;;;;;5111396;28;20192;-57
2024/01/19 06:34:20;;;;;;;1.97;1.70;;;-0.80;96.60;;;;;;5111679;28;20575;-57
2024/01/19 06:36:46;;;;;;;2.20;1.43;;;-0.90;96.70;;;;;;5111707;28;20540;-57
2024/01/19 06:39:12;;;;;;;3.85;2.28;;;-0.70;96.80;;;;;;5111612;28;20204;-57
2024/01/19 06:41:44;;;;;;;3.00;1.42;;;-0.70;96.70;;;;;;5111209;28;20689;-57
2024/01/19 06:44:11;;;;;;;4.40;1.50;;;-0.60;96.70;;;;;;5111477;28;20181;-57
2024/01/19 06:46:37;;;;;;;4.80;2.03;;;-0.60;96.70;;;;;;5111500;28;20213;-57
2024/01/19 06:49:03;;;;;;;2.30;1.65;;;-0.60;96.70;;;;;;5111475;28;20195;-57
2024/01/19 06:51:28;;;;;;;2.40;1.20;;;-0.60;96.50;;;;;;5111637;28;20786;-55
2024/01/19 06:53:57;;;;;;;1.73;1.63;;;-0.60;96.50;;;;;;5111503;28;20191;-57
2024/01/19 06:56:23;;;;;;;2.47;2.28;;;-0.70;96.30;;;;;;5098200;28;20173;-56
2024/01/19 06:58:49;;;;;;;3.15;1.33;;;-0.90;96.10;;;;;;5090982;28;20357;-57
2024/01/19 07:01:14;;;;;;;2.53;1.00;;;-1.10;96.40;;;;;;5091094;28;20272;-56
2024/01/19 07:03:40;;;;;;;1.87;1.70;;;-1.10;96.00;;;;;;5093144;28;20609;-57
2024/01/19 07:06:06;;;;;;;3.20;3.00;;;-1.20;95.80;;;;;;5094734;28;20165;-57
2024/01/19 07:08:32;;;;;;;2.40;1.40;;;-1.20;95.90;;;;;;5094692;28;20176;-57
2024/01/19 07:10:57;;;;;;;2.67;1.90;;;-1.40;95.80;;;;;;5094329;28;20261;-57
2024/01/19 07:13:23;;;;;;;3.67;3.20;;;-1.40;95.90;;;;;;5094453;28;20169;-57
2024/01/19 07:15:48;;;;;;;2.33;1.77;;;-1.50;96.00;;;;;;5094604;28;20165;-57
2024/01/19 07:18:14;;;;;;;5.13;3.47;;;-1.70;96.10;;;;;;5094558;28;20197;-56
2024/01/19 07:20:40;;;;;;;2.27;2.10;;;-1.70;96.10;;;;;;5094523;28;20427;-57
2024/01/19 07:23:06;;;;;;;0.90;0.90;;;-1.70;96.10;;;;;;5094392;28;20252;-57
2024/01/19 07:25:31;;;;;;;1.93;1.10;;;-1.80;96.20;;;;;;5094415;28;20171;-57
2024/01/19 07:27:57;;;;;;;1.87;1.23;;;-1.90;96.30;;;;;;5094870;28;20173;-57
2024/01/19 07:30:23;;;;;;;2.93;1.13;;;-1.90;96.50;;;;;;5094029;28;20407;-57
2024/01/19 07:32:48;;;;;;;1.13;1.00;;;-1.90;96.60;;;;;;5094413;28;20177;-57
2024/01/19 07:35:14;;;;;;;1.27;1.10;;;-1.90;96.60;;;;;;5094442;28;20204;-56
2024/01/19 07:37:40;;;;;;;2.83;2.47;;;-1.90;96.30;;;;;;5094189;28;20192;-57
2024/01/19 07:40:06;;;;;;;1.30;1.30;;;-1.80;95.90;;;;;;5094169;28;20218;-57
2024/01/19 07:42:32;;;;;;;3.85;1.73;;;-1.80;95.90;;;;;;5093767;28;20245;-56
2024/01/19 07:44:57;;;;;;;1.07;0.93;;;-1.80;96.20;;;;;;5094167;28;20255;-57
2024/01/19 07:47:24;;;;;;;1.67;1.57;;;-1.90;96.30;;;;;;5094032;28;20246;-56
2024/01/19 07:49:50;;;;;;;1.67;1.25;;;-1.90;96.20;;;;;;5093880;28;20177;-57
2024/01/19 07:52:15;;;;;;;1.47;1.37;;;-1.80;95.90;;;;;;5093649;28;20191;-57
2024/01/19 07:54:41;;;;;;;2.10;1.23;;;-1.90;95.80;;;;;;5093856;28;20410;-57
2024/01/19 07:57:06;;;;;;;1.33;1.20;;;-2.00;95.80;;;;;;5093822;28;20199;-57
2024/01/19 07:59:32;;;;;;;1.60;1.50;;;-1.90;96.00;;;;;;5094006;28;20551;-57
2024/01/19 08:01:58;;;;;;;1.03;0.90;;;-1.90;96.20;;;;;;5093589;28;20666;-57
2024/01/19 08:04:24;;;;;;;2.92;1.42;;;-1.90;96.40;;;;;;5093859;28;20173;-57
2024/01/19 08:06:50;;;;;;;1.27;1.10;;;-1.90;96.50;;;;;;5093704;28;20172;-57
2024/01/19 08:09:15;;;;;;;1.20;1.03;;;-1.80;96.60;;;;;;5093627;28;20160;-57
2024/01/19 08:11:41;;;;;;;1.63;1.57;;;-1.50;96.90;;;;;;5093033;28;20438;-57
2024/01/19 08:14:07;;;;;;;1.10;1.00;;;-1.00;96.80;;;;;;5092933;28;20173;-57
2024/01/19 08:16:32;;;;;;;3.37;1.00;;;-0.80;95.80;;;;;;5093294;28;20221;-57
2024/01/19 08:18:58;;;;;;;0.67;0.67;;;-0.90;94.90;;;;;;5093242;28;20205;-57
2024/01/19 08:21:24;;;;;;;2.33;2.00;;;-0.80;95.20;;;;;;5093045;28;20181;-57
2024/01/19 08:23:49;;;;;;;2.00;1.13;;;-0.80;95.60;;;;;;5093354;28;20184;-54
2024/01/19 08:26:15;;;;;;;1.67;1.57;;;-0.70;95.50;;;;;;5093319;28;20161;-57
2024/01/19 08:28:45;;;;;;;3.80;2.00;;;-0.70;95.60;;;;;;5093168;28;20415;-57
2024/01/19 08:31:12;;;;;;;5.07;3.45;;;-0.30;96.20;;;;;;5093083;28;20200;-58
2024/01/19 08:33:38;;;;;;;2.22;1.95;;;1.10;96.70;;;;;;5093031;28;20628;-57
2024/01/19 08:36:04;;;;;;;7.90;3.43;;;2.90;95.00;;;;;;5093170;28;20193;-57
2024/01/19 08:38:29;;;;;;;3.58;2.80;;;4.20;91.70;;;;;;5092787;28;20194;-57
2024/01/19 08:40:55;;;;;;;5.63;2.53;;;5.10;88.70;;;;;;5092749;28;20675;-58
2024/01/19 08:43:21;;;;;;;8.63;3.50;;;5.80;81.90;;;;;;5092756;28;20665;-56
2024/01/19 08:45:46;;;;;;;4.10;2.70;;;6.20;78.30;;;;;;5093125;28;20523;-56
2024/01/19 08:48:12;;;;;;;3.73;3.30;;;6.80;76.10;;;;;;5092447;28;20226;-57
2024/01/19 08:50:38;;;;;;;1.20;1.07;;;6.90;72.90;;;;;;5092533;28;20180;-55
2024/01/19 08:53:04;;;;;;;1.00;0.90;;;7.10;70.40;;;;;;5092553;28;20489;-51
2024/01/19 08:55:30;;;;;;;1.05;1.05;;;7.00;67.10;;;;;;5092622;28;20767;-56
2024/01/19 08:57:56;;;;;;;1.17;1.00;;;6.90;67.20;;;;;;5092524;28;20244;-55
2024/01/19 09:00:21;;;;;;;1.33;1.23;;;6.70;65.40;;;;;;5092450;28;20165;-57
2024/01/19 09:02:51;;;;;;;1.20;1.10;;;6.60;66.10;;;;;;5092458;28;20266;-59
2024/01/19 09:05:17;;;;;;;2.00;1.60;;;6.80;66.80;;;;;;5092503;28;20403;-57
2024/01/19 09:07:43;;;;;;;1.50;1.40;;;7.30;66.00;;;;;;5092432;28;20218;-57
2024/01/19 09:10:09;;;;;;;1.55;1.50;;;7.80;63.40;;;;;;5092368;28;20187;-58
2024/01/19 09:12:35;;;;;;;1.50;1.40;;;8.30;64.10;;;;;;5099276;28;20211;-58
2024/01/19 09:15:03;;;;;;;1.37;1.27;;;8.90;61.40;;;;;;5112647;28;20165;-57
2024/01/19 09:17:29;;;;;;;2.33;2.05;;;9.10;59.10;;;;;;5112538;28;20445;-58
2024/01/19 09:19:55;;;;;;;4.07;1.50;;;8.70;57.90;;;;;;5111171;28;20172;-59
2024/01/19 09:22:21;;;;;;;1.53;1.30;;;8.10;58.70;;;;;;5111837;28;20437;-57
2024/01/19 09:24:47;;;;;;;0.93;0.93;;;7.50;59.60;;;;;;5112532;28;20164;-59
2024/01/19 09:27:12;;;;;;;1.70;1.60;;;6.80;59.70;;;;;;5112215;28;20171;-57
2024/01/19 09:29:38;;;;;;;1.00;1.00;;;6.20;61.30;;;;;;5112433;28;20530;-57
2024/01/19 09:32:04;;;;;;;1.27;1.10;;;5.40;61.40;;;;;;5112142;28;20194;-57
2024/01/19 09:34:29;;;;;;;3.45;1.30;;;4.30;60.40;;;;;;5112338;28;20597;-57
2024/01/19 09:36:55;;;;;;;1.67;1.23;;;4.10;61.60;;;;;;5112091;28;20183;-56
2024/01/19 09:39:23;;;;;;;1.50;0.93;;;3.90;63.40;;;;;;5112357;28;20172;-57
2024/01/19 09:42:02;;;;;;;1.85;1.45;;;3.70;62.90;;;;;;5111601;28;20810;-57
2024/01/19 09:44:36;;;;;;;0.80;0.80;;;3.60;60.80;;;;;;5112141;28;20259;-57
2024/01/19 09:47:20;;;;;;;1.10;0.82;;;3.40;59.70;;;;;;5112206;28;20273;-57
2024/01/19 09:49:55;;;;;;;0.93;0.80;;;3.40;59.80;;;;;;5111877;28;20173;-57
2024/01/19 09:52:30;;;;;;;1.33;1.00;;;3.30;60.90;;;;;;5111833;28;20277;-57
2024/01/19 09:54:55;;;;;;;0.95;0.80;;;3.20;63.40;;;;;;5111989;28;20637;-55
2024/01/19 09:57:21;;;;;;;1.60;1.13;;;3.40;64.70;;;;;;5111934;28;20202;-57
2024/01/19 09:59:47;;;;;;;1.23;0.70;;;3.50;60.50;;;;;;5111953;28;20172;-51
2024/01/19 10:02:13;;;;;;;0.77;0.77;;;3.20;60.60;;;;;;5111621;28;20183;-56
2024/01/19 10:04:39;;;;;;;0.63;0.63;;;3.20;61.40;;;;;;5111923;28;20180;-56
2024/01/19 10:07:06;;;;;;;0.90;0.60;;;3.30;61.50;;;;;;5112025;28;20172;-57
2024/01/19 10:09:32;;;;;;;1.10;0.82;;;3.50;61.50;;;;;;5111889;28;20184;-56
2024/01/19 10:11:58;;;;;;;1.40;1.30;;;3.10;63.10;;;;;;5111220;28;20212;-56
2024/01/19 10:14:25;;;;;;;0.83;0.83;;;3.10;64.60;;;;;;5111745;28;20198;-57
2024/01/19 10:16:51;;;;;;;1.95;1.15;;;3.20;64.30;;;;;;5111804;28;20672;-57
2024/01/19 10:19:20;;;;;;;2.00;1.50;;;3.20;64.40;;;;;;5111552;28;20256;-57
2024/01/19 10:21:46;;;;;;;0.90;0.90;;;3.10;63.80;;;;;;5111401;28;20513;-57
2024/01/19 10:24:18;;;;;;;0.80;0.80;;;3.10;64.70;;;;;;5111702;28;20175;-57
2024/01/19 10:26:47;;;;;;;1.23;1.23;;;3.10;61.60;;;;;;5111729;28;20172;-57
2024/01/19 10:29:14;;;;;;;2.38;0.98;;;2.60;60.00;;;;;;5111668;28;20207;-57
2024/01/19 10:31:41;;;;;;;0.90;0.90;;;2.00;61.50;;;;;;5111420;28;20252;-57
2024/01/19 10:34:18;;;;;;;2.05;1.05;;;1.80;62.20;;;;;;5111792;28;20183;-57
2024/01/19 10:36:44;;;;;;;9.38;1.67;;;1.70;62.00;;;;;;5111734;28;20648;-57
2024/01/19 10:39:20;;;;;;;3.30;1.20;;;1.60;62.10;;;;;;5114726;28;20336;-57
2024/01/19 10:41:46;;;;;;;0.60;0.60;;;1.60;61.50;;;;;;5115548;28;20190;-57
2024/01/19 10:44:14;;;;;;;1.48;0.98;;;1.60;63.40;;;;;;5115591;28;20228;-56
2024/01/19 10:46:40;;;;;;;3.55;1.13;;;1.70;62.70;;;;;;5115364;28;20588;-57
2024/01/19 10:49:10;;;;;;;1.10;1.10;;;1.70;64.00;;;;;;5115452;28;20307;-56
2024/01/19 10:51:44;;;;;;;0.80;0.80;;;1.50;63.20;;;;;;5115124;28;20432;-57
2024/01/19 10:54:15;;;;;;;1.00;0.95;;;1.40;63.90;;;;;;5115409;28;20195;-57
2024/01/19 10:56:42;;;;;;;0.70;0.70;;;1.50;64.40;;;;;;5115528;28;20574;-57
2024/01/19 10:59:13;;;;;;;2.38;1.42;;;1.50;65.40;;;;;;5115256;28;20271;-57
2024/01/19 11:01:39;;;;;;;1.05;1.05;;;1.50;68.70;;;;;;5115159;28;20184;-57
2024/01/19 11:04:08;;;;;;;2.15;0.90;;;1.60;66.90;;;;;;5115301;28;20206;-57
2024/01/19 11:06:37;;;;;;;0.80;0.80;;;1.50;67.60;;;;;;5115185;28;20168;-57
2024/01/19 11:09:06;;;;;;;4.75;4.10;;;1.50;67.70;;;;;;5115173;28;20183;-56
2024/01/19 11:11:35;;;;;;;3.85;3.30;;;1.60;68.80;;;;;;5114691;28;20207;-54
2024/01/19 11:14:02;;;;;;;6.82;4.97;;;1.60;68.20;;;;;;5115089;28;20171;-57
2024/01/19 11:16:30;;;;;;;2.83;2.60;;;1.50;68.80;;;;;;5114864;28;20173;-57
2024/01/19 11:18:56;;;;;;;1.35;1.35;;;1.60;69.10;;;;;;5114828;28;20243;-57
2024/01/19 11:21:24;;;;;;;6.93;4.70;;;1.70;67.30;;;;;;5114700;28;20888;-57
2024/01/19 11:23:51;;;;;;;3.65;2.53;;;1.80;66.50;;;;;;5095415;28;20207;-56
2024/01/19 11:26:40;;;;;;;10.00;8.40;;;2.00;66.20;;;;;;5094236;28;20168;-57
2024/01/19 11:29:25;;;;;;;1.20;1.00;;;2.00;67.00;;;;;;5094431;28;20168;-57
2024/01/19 11:31:52;;;;;;;1.95;0.93;;;2.20;65.10;;;;;;5093974;28;20197;-57
2024/01/19 11:34:41;;;;;;;1.63;1.00;;;2.40;64.80;;;;;;5094673;28;20165;-57
2024/01/19 11:37:08;;;;;;;1.17;1.08;;;2.50;66.30;;;;;;5084063;28;20184;-57
2024/01/19 11:39:38;;;;;;;0.88;0.80;;;2.60;66.70;;;;;;5094482;28;20173;-57
2024/01/19 11:42:03;;;;;;;1.42;1.33;;;2.80;66.50;;;;;;5093761;28;20199;-57
2024/01/19 11:44:43;;;;;;;1.13;1.00;;;2.90;66.10;;;;;;5094309;28;20168;-57
2024/01/19 11:47:09;;;;;;;1.42;1.10;;;3.00;63.70;;;;;;5094290;28;20180;-57
2024/01/19 11:49:45;;;;;;;1.05;1.00;;;3.10;65.10;;;;;;5092636;28;20260;-57
2024/01/19 11:52:20;;;;;;;0.77;0.77;;;3.20;62.70;;;;;;5093493;28;20193;-57
2024/01/19 11:54:45;;;;;;;1.70;1.55;;;3.30;64.20;;;;;;5093856;28;20165;-57
2024/01/19 11:57:25;;;;;;;1.53;1.43;;;3.30;65.10;;;;;;5093750;28;20237;-57
2024/01/19 11:59:53;;;;;;;0.60;0.60;;;3.30;63.70;;;;;;5093842;28;20718;-57
2024/01/19 12:02:27;;;;;;;0.90;0.90;;;3.20;64.50;;;;;;5093407;28;20193;-57
2024/01/19 12:04:54;;;;;;;0.95;0.93;;;3.20;64.80;;;;;;5093552;28;20184;-56
2024/01/19 12:07:23;;;;;;;4.07;3.38;;;2.80;64.10;;;;;;5093618;28;20519;-57
2024/01/19 12:10:20;;;;;;;2.78;1.30;;;2.50;64.90;;;;;;5093372;28;20180;-57
2024/01/19 12:12:49;;;;;;;3.42;1.17;;;2.40;65.50;;;;;;5133828;22;20253;-63
2024/01/19 12:15:19;;;;;;;0.98;0.93;;;2.40;67.50;;;;;;5072880;28;20287;-63
2024/01/19 12:17:44;;;;;;;1.15;1.00;;;2.50;65.90;;;;;;5073322;28;20189;-63
2024/01/19 12:20:16;;;;;;;0.70;0.70;;;2.50;65.50;;;;;;5073235;28;20173;-63
2024/01/19 12:22:42;;;;;;;0.63;0.63;;;2.50;65.20;;;;;;5072861;28;20475;-63
2024/01/19 12:25:19;;;;;;;1.08;1.08;;;2.60;66.00;;;;;;5073087;28;20218;-64
2024/01/19 12:27:46;;;;;;;5.00;0.98;;;2.80;65.80;;;;;;5073127;28;20237;-63
2024/01/19 12:30:13;;;;;;;1.45;0.90;;;2.90;65.90;;;;;;5073037;28;20178;-63
2024/01/19 12:32:39;;;;;;;1.70;0.70;;;3.00;66.00;;;;;;5072583;28;20584;-63
2024/01/19 12:35:05;;;;;;;0.60;0.60;;;2.90;64.10;;;;;;5072846;28;20241;-63
2024/01/19 12:37:31;;;;;;;1.30;1.20;;;2.80;64.30;;;;;;5072857;28;20569;-63
2024/01/19 12:40:25;;;;;;;0.60;0.60;;;2.70;63.80;;;;;;5072778;28;20179;-63
2024/01/19 12:42:51;;;;;;;0.70;0.70;;;2.50;65.00;;;;;;5072692;28;20536;-64
2024/01/19 12:45:20;;;;;;;1.23;1.10;;;2.70;66.60;;;;;;5072754;28;20174;-63
2024/01/19 12:47:47;;;;;;;0.70;0.70;;;2.80;67.30;;;;;;5072738;28;20168;-63
2024/01/19 12:50:13;;;;;;;1.02;1.02;;;2.90;67.10;;;;;;5072700;28;20185;-63